Time;durP1;ratioP1;P1;durP2;ratioP2;P2;SDS_P1;SDS_P2;PMS_P1;PMS_P2;Temp;Humidity;BMP_temperature;BMP_pressure;BME280_temperature;BME280_humidity;BME280_pressure;Samples;Min_cycle;Max_cycle;Signal;HPM_P1;HPM_P2
2021/03/24 15:19:07;;;;;;;1.73;1.60;;;9.90;48.80;;;;;;5091386;28;20587;-68
2021/03/24 15:23:50;;;;;;;1.65;1.30;;;9.50;84.10;;;;;;5091366;28;20299;-69
2021/03/24 15:26:52;;;;;;;2.72;1.55;;;9.80;57.50;;;;;;5090906;28;20172;-68
2021/03/24 15:29:38;;;;;;;2.70;1.90;;;9.60;74.30;;;;;;5090849;28;20160;-69
2021/03/24 15:32:10;;;;;;;1.92;1.77;;;9.60;49.50;;;;;;5089859;28;20212;-69
2021/03/24 15:34:43;;;;;;;1.80;1.70;;;9.60;49.50;;;;;;5090959;28;20666;-68
2021/03/24 15:37:20;;;;;;;2.90;1.42;;;9.50;49.80;;;;;;5090636;28;20573;-69
2021/03/24 15:40:25;;;;;;;3.63;1.50;;;9.40;49.80;;;;;;5090427;28;20208;-68
2021/03/24 15:42:59;;;;;;;1.90;1.40;;;9.30;50.70;;;;;;5086311;28;20252;-68
2021/03/24 15:45:27;;;;;;;3.10;1.60;;;9.20;50.40;;;;;;5090763;28;20173;-68
2021/03/24 15:47:53;;;;;;;2.90;1.75;;;9.10;50.80;;;;;;5090644;28;20172;-69
2021/03/24 15:51:02;;;;;;;3.03;2.43;;;9.10;50.80;;;;;;5090368;28;20185;-69
2021/03/24 15:53:36;;;;;;;1.98;1.88;;;9.30;50.50;;;;;;5068075;28;20921;-68
2021/03/24 15:56:32;;;;;;;2.25;1.70;;;9.40;50.30;;;;;;5051124;28;20680;-69
2021/03/24 15:59:01;;;;;;;1.92;1.73;;;9.40;49.60;;;;;;5084964;28;20573;-68
2021/03/24 16:02:16;;;;;;;2.08;1.40;;;9.30;49.60;;;;;;5089852;28;20246;-69
2021/03/24 16:05:15;;;;;;;2.38;2.08;;;9.30;49.70;;;;;;5087093;28;20173;-68
2021/03/24 16:08:02;;;;;;;1.70;1.40;;;9.20;50.10;;;;;;5090441;28;20204;-74
2021/03/24 16:10:45;;;;;;;1.35;1.25;;;9.40;53.90;;;;;;5092838;28;20179;-69
2021/03/24 16:13:32;;;;;;;2.08;1.77;;;9.50;51.00;;;;;;5096977;28;20185;-69
2021/03/24 16:16:12;;;;;;;2.00;1.50;;;9.20;49.80;;;;;;5090133;28;20233;-69
2021/03/24 16:18:56;;;;;;;2.08;1.25;;;9.00;50.30;;;;;;5090537;28;20177;-71
2021/03/24 16:21:45;;;;;;;3.25;2.03;;;9.20;51.50;;;;;;5089803;28;20204;-69
2021/03/24 16:24:24;;;;;;;1.63;1.52;;;9.10;50.80;;;;;;5086144;28;20526;-70
2021/03/24 16:26:50;;;;;;;1.50;1.40;;;9.10;50.20;;;;;;5090462;28;20161;-70
2021/03/24 16:29:48;;;;;;;2.50;1.30;;;8.70;50.60;;;;;;5090042;28;20214;-70
2021/03/24 16:32:35;;;;;;;4.78;1.88;;;8.30;51.80;;;;;;5080573;28;20209;-70
2021/03/24 16:35:13;;;;;;;1.70;1.30;;;8.40;52.40;;;;;;5075613;28;20196;-70
2021/03/24 16:37:44;;;;;;;1.10;1.05;;;8.40;52.50;;;;;;5075225;28;20256;-70
2021/03/24 16:40:58;;;;;;;3.50;1.90;;;8.50;52.80;;;;;;5075622;28;20178;-70
2021/03/24 16:43:51;;;;;;;1.65;1.55;;;8.40;52.30;;;;;;5039517;28;20209;-71
2021/03/24 16:46:53;;;;;;;2.92;1.80;;;8.50;52.20;;;;;;5076307;28;20161;-70
2021/03/24 16:50:13;;;;;;;1.58;1.42;;;8.40;53.00;;;;;;5075736;28;20165;-70
2021/03/24 16:52:50;;;;;;;2.20;1.98;;;8.40;53.00;;;;;;5053767;28;20332;-70
2021/03/24 16:55:29;;;;;;;1.25;1.10;;;8.40;53.90;;;;;;5075809;28;20558;-70
2021/03/24 16:58:30;;;;;;;1.27;1.17;;;8.20;53.70;;;;;;5075966;28;20183;-70
2021/03/24 17:01:10;;;;;;;2.42;1.95;;;8.00;55.20;;;;;;5075440;28;20624;-71
2021/03/24 17:03:51;;;;;;;3.65;1.95;;;8.00;55.10;;;;;;5075907;28;20529;-70
2021/03/24 17:06:31;;;;;;;1.23;1.13;;;8.00;55.00;;;;;;5075712;28;20168;-70
2021/03/24 17:09:24;;;;;;;3.03;1.40;;;7.90;55.30;;;;;;5074223;28;20725;-71
2021/03/24 17:12:19;;;;;;;1.95;1.45;;;7.70;55.00;;;;;;5065168;28;20547;-70
2021/03/24 17:15:00;;;;;;;1.95;1.27;;;7.50;55.90;;;;;;5075479;28;20285;-71
2021/03/24 17:17:33;;;;;;;1.63;1.52;;;7.50;56.50;;;;;;5075577;28;20264;-70
2021/03/24 17:20:11;;;;;;;1.38;1.25;;;7.50;57.00;;;;;;5075166;28;20512;-70
2021/03/24 17:22:41;;;;;;;1.45;1.30;;;7.30;56.90;;;;;;5075041;28;20207;-70
2021/03/24 17:25:33;;;;;;;3.47;1.70;;;7.10;57.40;;;;;;5075286;28;20186;-69
2021/03/24 17:28:11;;;;;;;1.55;1.40;;;7.00;58.40;;;;;;5075362;28;20171;-69
2021/03/24 17:30:37;;;;;;;1.65;1.55;;;6.90;58.20;;;;;;5074873;28;20172;-70
2021/03/24 17:33:10;;;;;;;2.75;1.70;;;6.70;58.50;;;;;;5075004;28;20307;-70
2021/03/24 17:35:55;;;;;;;1.45;1.35;;;6.50;59.20;;;;;;5075420;28;20178;-70
2021/03/24 17:38:29;;;;;;;1.23;1.13;;;6.50;60.30;;;;;;5075132;28;20197;-70
2021/03/24 17:41:07;;;;;;;2.80;2.05;;;6.50;61.90;;;;;;5074689;28;20197;-70
2021/03/24 17:44:05;;;;;;;1.70;1.33;;;6.50;63.10;;;;;;5074864;28;20162;-70
2021/03/24 17:46:47;;;;;;;1.98;1.35;;;6.30;64.90;;;;;;5069501;28;20186;-70
2021/03/24 17:49:15;;;;;;;1.30;1.20;;;6.10;66.20;;;;;;5074737;28;20648;-70
2021/03/24 17:51:53;;;;;;;2.28;1.90;;;5.90;68.00;;;;;;5074855;28;20182;-71
2021/03/24 17:54:50;;;;;;;2.67;2.28;;;5.70;70.50;;;;;;5073045;28;20328;-70
2021/03/24 17:57:33;;;;;;;1.42;1.33;;;5.70;74.00;;;;;;5075044;28;20174;-70
2021/03/24 18:00:36;;;;;;;1.48;1.15;;;5.60;76.90;;;;;;5074647;28;20169;-70
2021/03/24 18:03:22;;;;;;;1.70;1.35;;;5.60;78.10;;;;;;5074003;28;20193;-70
2021/03/24 18:06:32;;;;;;;4.78;1.75;;;5.50;80.80;;;;;;5074399;28;20177;-71
2021/03/24 18:09:07;;;;;;;2.40;1.92;;;5.50;81.90;;;;;;5074173;28;20196;-71
2021/03/24 18:11:39;;;;;;;1.27;1.15;;;5.20;84.10;;;;;;5074361;28;20200;-73
2021/03/24 18:14:21;;;;;;;1.42;1.33;;;5.00;85.30;;;;;;5074434;28;20318;-70
2021/03/24 18:16:47;;;;;;;1.80;1.70;;;5.20;87.60;;;;;;5074230;28;20256;-71
2021/03/24 18:19:34;;;;;;;2.20;2.00;;;5.10;89.00;;;;;;5074102;28;20200;-70
2021/03/24 18:22:01;;;;;;;21.25;13.45;;;5.20;89.50;;;;;;5073763;28;20205;-71
2021/03/24 18:24:27;;;;;;;11.70;9.68;;;5.10;90.00;;;;;;5074083;28;20528;-70
2021/03/24 18:26:53;;;;;;;5.93;3.10;;;5.10;90.50;;;;;;5074218;28;20236;-71
2021/03/24 18:29:19;;;;;;;2.45;2.28;;;4.80;91.00;;;;;;5073971;28;20181;-70
2021/03/24 18:31:51;;;;;;;2.13;1.75;;;4.80;91.60;;;;;;5072645;28;20370;-70
2021/03/24 18:34:37;;;;;;;1.73;1.45;;;4.80;92.00;;;;;;5072432;28;20260;-70
2021/03/24 18:37:07;;;;;;;2.13;1.90;;;4.70;91.90;;;;;;5073895;28;20182;-70
2021/03/24 18:39:39;;;;;;;1.65;1.30;;;4.80;92.30;;;;;;5073490;28;20181;-71
2021/03/24 18:42:18;;;;;;;2.17;1.35;;;4.80;92.10;;;;;;5073588;28;20202;-70
2021/03/24 18:44:47;;;;;;;2.47;1.33;;;4.60;92.60;;;;;;5073761;28;20637;-70
2021/03/24 18:47:32;;;;;;;1.95;1.73;;;4.60;93.20;;;;;;5072027;28;20251;-70
2021/03/24 18:50:00;;;;;;;2.15;1.80;;;4.60;93.30;;;;;;5073612;28;20166;-71
2021/03/24 18:52:40;;;;;;;2.20;1.75;;;4.50;93.30;;;;;;5073669;28;20196;-71
2021/03/24 18:55:21;;;;;;;1.38;1.30;;;4.40;93.60;;;;;;5073569;28;20208;-71
2021/03/24 18:57:49;;;;;;;1.90;1.75;;;4.40;93.40;;;;;;5073264;28;20593;-71
2021/03/24 19:00:24;;;;;;;2.70;1.90;;;4.50;93.30;;;;;;5073465;28;20191;-71
2021/03/24 19:02:51;;;;;;;2.00;1.80;;;4.30;92.80;;;;;;5073473;28;20576;-71
2021/03/24 19:05:31;;;;;;;3.10;1.83;;;4.20;93.30;;;;;;5073453;28;20173;-71
2021/03/24 19:07:58;;;;;;;1.90;1.15;;;4.10;93.40;;;;;;5073871;28;20165;-71
2021/03/24 19:10:28;;;;;;;4.95;1.50;;;4.00;93.70;;;;;;5073169;28;20174;-71
2021/03/24 19:12:56;;;;;;;2.28;2.08;;;4.00;94.20;;;;;;5073511;28;20558;-71
2021/03/24 19:15:40;;;;;;;2.40;1.52;;;4.10;94.40;;;;;;5073475;28;20669;-71
2021/03/24 19:18:21;;;;;;;3.00;2.22;;;4.20;94.10;;;;;;5073480;28;20220;-71
2021/03/24 19:20:56;;;;;;;2.70;2.50;;;4.20;94.80;;;;;;5073140;28;20538;-71
2021/03/24 19:23:22;;;;;;;2.33;2.13;;;4.20;94.80;;;;;;5073117;28;20244;-71
2021/03/24 19:26:09;;;;;;;5.43;3.97;;;4.20;94.60;;;;;;5073471;28;20200;-71
2021/03/24 19:28:34;;;;;;;3.42;2.78;;;4.10;95.10;;;;;;5071978;28;20404;-70
2021/03/24 19:31:09;;;;;;;6.10;2.80;;;4.00;95.70;;;;;;5072982;28;20215;-71
2021/03/24 19:33:41;;;;;;;5.88;2.83;;;3.80;96.00;;;;;;5073337;28;20165;-71
2021/03/24 19:36:06;;;;;;;8.52;6.05;;;3.80;96.20;;;;;;5073258;28;20561;-71
2021/03/24 19:38:35;;;;;;;3.57;2.77;;;3.80;96.20;;;;;;5073228;28;20209;-71
2021/03/24 19:41:06;;;;;;;2.38;2.10;;;3.90;95.90;;;;;;5072961;28;20169;-71
2021/03/24 19:43:50;;;;;;;5.13;3.25;;;3.90;95.60;;;;;;5073000;28;20190;-71
2021/03/24 19:46:21;;;;;;;2.22;2.03;;;4.00;95.40;;;;;;5073211;28;20222;-71
2021/03/24 19:49:00;;;;;;;2.33;1.80;;;3.90;95.60;;;;;;5072932;28;20169;-70
2021/03/24 19:51:26;;;;;;;2.00;1.85;;;3.90;95.50;;;;;;5073086;28;20254;-71
2021/03/24 19:53:54;;;;;;;3.58;2.80;;;3.80;95.50;;;;;;5072996;28;20158;-71
2021/03/24 19:56:37;;;;;;;6.78;5.55;;;3.80;95.50;;;;;;5072990;28;20169;-71
2021/03/24 19:59:26;;;;;;;6.95;6.25;;;3.90;95.70;;;;;;5072976;28;20165;-71
2021/03/24 20:01:59;;;;;;;2.65;1.92;;;3.90;95.70;;;;;;5072775;28;20622;-71
2021/03/24 20:04:35;;;;;;;3.28;2.70;;;3.80;95.80;;;;;;5072873;28;20185;-71
2021/03/24 20:07:05;;;;;;;4.10;2.40;;;3.70;96.00;;;;;;5071580;28;20210;-71
2021/03/24 20:09:34;;;;;;;15.77;3.75;;;3.70;96.40;;;;;;5075246;28;20166;-71
2021/03/24 20:12:09;;;;;;;5.97;2.92;;;3.60;96.20;;;;;;5076660;28;20203;-71
2021/03/24 20:14:41;;;;;;;3.45;2.33;;;3.50;95.80;;;;;;5076783;28;20402;-71
2021/03/24 20:17:19;;;;;;;2.72;1.90;;;3.60;96.10;;;;;;5076534;28;20176;-71
2021/03/24 20:19:46;;;;;;;2.33;2.13;;;3.80;95.80;;;;;;5076262;28;20182;-71
2021/03/24 20:22:12;;;;;;;1.98;1.88;;;3.80;96.00;;;;;;5076151;28;20274;-71
2021/03/24 20:24:38;;;;;;;2.30;2.10;;;3.70;96.20;;;;;;5076326;28;20247;-71
2021/03/24 20:27:04;;;;;;;4.80;2.77;;;3.80;96.30;;;;;;5076462;28;20198;-72
2021/03/24 20:29:33;;;;;;;6.60;2.70;;;3.80;96.00;;;;;;5076266;28;20549;-71
2021/03/24 20:32:11;;;;;;;1.88;1.77;;;3.80;95.80;;;;;;5076051;28;20342;-71
2021/03/24 20:35:14;;;;;;;1.65;1.52;;;3.80;95.80;;;;;;5076191;28;20373;-71
2021/03/24 20:37:52;;;;;;;2.80;2.60;;;3.70;96.10;;;;;;5076081;28;20505;-71
2021/03/24 20:40:17;;;;;;;2.63;1.88;;;3.70;96.50;;;;;;5076049;28;20169;-71
2021/03/24 20:42:47;;;;;;;22.57;2.77;;;3.60;96.50;;;;;;5076406;28;20651;-71
2021/03/24 20:45:23;;;;;;;1.65;1.55;;;3.60;96.60;;;;;;5076183;28;20173;-71
2021/03/24 20:47:49;;;;;;;3.70;2.55;;;3.60;96.80;;;;;;5076067;28;20169;-70
2021/03/24 20:50:30;;;;;;;3.67;1.90;;;3.40;96.80;;;;;;5075848;28;20166;-71
2021/03/24 20:52:56;;;;;;;4.30;1.77;;;3.20;97.00;;;;;;5075770;28;20189;-71
2021/03/24 20:55:23;;;;;;;6.43;2.10;;;3.30;97.10;;;;;;5074470;28;20181;-71
2021/03/24 20:57:50;;;;;;;1.50;1.40;;;3.30;96.90;;;;;;5075954;28;20169;-71
2021/03/24 21:00:31;;;;;;;1.88;1.77;;;3.30;97.10;;;;;;5075518;28;20186;-71
2021/03/24 21:02:57;;;;;;;3.42;1.75;;;3.50;96.90;;;;;;5075661;28;20605;-71
2021/03/24 21:05:22;;;;;;;4.80;2.53;;;3.50;97.20;;;;;;5075815;28;20254;-71
2021/03/24 21:07:48;;;;;;;3.93;2.80;;;3.50;97.30;;;;;;5075682;28;20165;-71
2021/03/24 21:10:31;;;;;;;4.50;3.13;;;3.40;97.50;;;;;;5075378;28;20173;-71
2021/03/24 21:12:57;;;;;;;3.13;2.88;;;3.30;97.60;;;;;;5075421;28;20192;-71
2021/03/24 21:15:23;;;;;;;3.73;2.27;;;3.10;97.90;;;;;;5075459;28;20259;-71
2021/03/24 21:17:50;;;;;;;3.38;3.00;;;3.10;97.80;;;;;;5075468;28;20170;-71
2021/03/24 21:20:28;;;;;;;3.55;3.00;;;3.10;98.00;;;;;;5075272;28;20595;-71
2021/03/24 21:22:55;;;;;;;3.20;2.55;;;3.30;97.90;;;;;;5075082;28;20208;-71
2021/03/24 21:25:22;;;;;;;6.70;2.55;;;3.30;97.60;;;;;;5075223;28;20184;-71
2021/03/24 21:27:48;;;;;;;3.22;2.88;;;3.40;97.60;;;;;;5075170;28;20629;-71
2021/03/24 21:30:27;;;;;;;3.83;2.67;;;3.40;97.50;;;;;;5075121;28;20568;-71
2021/03/24 21:32:53;;;;;;;6.25;3.25;;;3.40;97.60;;;;;;5075014;28;20181;-70
2021/03/24 21:35:20;;;;;;;5.13;2.27;;;3.40;97.50;;;;;;5075206;28;20625;-70
2021/03/24 21:37:47;;;;;;;4.80;2.60;;;3.30;97.40;;;;;;5075131;28;20187;-71
2021/03/24 21:40:14;;;;;;;3.47;2.67;;;3.20;97.60;;;;;;5074852;28;20188;-71
2021/03/24 21:42:40;;;;;;;1.70;1.60;;;3.20;97.50;;;;;;5074762;28;20557;-71
2021/03/24 21:45:07;;;;;;;3.40;2.00;;;3.20;97.50;;;;;;5074908;28;20203;-71
2021/03/24 21:47:40;;;;;;;2.03;1.75;;;3.00;97.20;;;;;;5074980;28;20491;-70
2021/03/24 21:50:14;;;;;;;6.63;1.90;;;2.90;97.20;;;;;;5074632;28;20685;-70
2021/03/24 21:52:40;;;;;;;3.15;1.95;;;2.90;97.30;;;;;;5074754;28;20658;-70
2021/03/24 21:55:07;;;;;;;3.03;2.73;;;3.00;97.20;;;;;;5074678;28;20244;-73
2021/03/24 21:57:57;;;;;;;3.00;2.33;;;3.10;97.20;;;;;;5074631;28;20407;-71
2021/03/24 22:00:27;;;;;;;1.95;1.65;;;3.10;97.30;;;;;;5074349;28;20174;-71
2021/03/24 22:03:28;;;;;;;2.10;1.90;;;3.20;97.20;;;;;;5074789;28;20681;-70
2021/03/24 22:05:54;;;;;;;3.95;1.77;;;3.20;96.90;;;;;;5074681;28;20222;-71
2021/03/24 22:08:20;;;;;;;8.00;1.50;;;3.10;96.60;;;;;;5074476;28;20168;-70
2021/03/24 22:10:47;;;;;;;3.83;1.80;;;3.20;96.50;;;;;;5074309;28;20205;-71
2021/03/24 22:13:50;;;;;;;2.10;1.90;;;3.20;96.30;;;;;;5074360;28;20423;-71
2021/03/24 22:16:21;;;;;;;1.65;1.50;;;3.20;96.50;;;;;;5072910;28;20201;-71
2021/03/24 22:18:54;;;;;;;2.28;1.42;;;3.20;96.70;;;;;;5074452;28;20599;-70
2021/03/24 22:21:21;;;;;;;3.47;2.35;;;3.20;96.50;;;;;;5073829;28;20595;-71
2021/03/24 22:23:47;;;;;;;1.55;1.35;;;3.10;96.80;;;;;;5074314;28;20501;-71
2021/03/24 22:26:29;;;;;;;3.42;1.75;;;3.10;96.90;;;;;;5074001;28;20522;-71
2021/03/24 22:29:09;;;;;;;2.20;1.67;;;3.00;96.80;;;;;;5072655;28;20243;-70
2021/03/24 22:31:57;;;;;;;1.73;1.63;;;3.00;96.80;;;;;;5073599;28;20637;-71
2021/03/24 22:34:32;;;;;;;2.20;1.40;;;3.00;97.00;;;;;;5074039;28;20542;-71
2021/03/24 22:37:01;;;;;;;5.30;1.95;;;3.00;97.20;;;;;;5073421;28;20507;-71
2021/03/24 22:39:41;;;;;;;1.88;1.77;;;3.00;97.20;;;;;;5072938;28;20172;-71
2021/03/24 22:42:20;;;;;;;5.45;2.00;;;2.90;97.10;;;;;;5073672;28;20202;-71
2021/03/24 22:44:46;;;;;;;3.85;1.60;;;2.90;97.20;;;;;;5074137;28;20562;-71
2021/03/24 22:47:30;;;;;;;1.30;1.20;;;2.90;97.60;;;;;;5073624;28;20174;-71
2021/03/24 22:50:05;;;;;;;2.58;1.73;;;2.90;97.70;;;;;;5073572;28;20640;-70
2021/03/24 22:52:57;;;;;;;1.65;1.52;;;2.90;97.70;;;;;;5073571;28;20199;-71
2021/03/24 22:55:51;;;;;;;1.65;1.50;;;2.70;97.40;;;;;;5073622;28;20174;-70
2021/03/24 22:58:23;;;;;;;1.00;0.90;;;2.60;97.30;;;;;;5073775;28;20221;-71
2021/03/24 23:00:55;;;;;;;1.42;1.27;;;2.70;96.80;;;;;;5072191;28;20177;-71
2021/03/24 23:03:43;;;;;;;1.40;1.20;;;2.60;96.40;;;;;;5074223;28;20541;-71
2021/03/24 23:06:11;;;;;;;2.88;1.60;;;2.50;96.60;;;;;;5064931;28;20181;-70
2021/03/24 23:08:39;;;;;;;1.58;1.25;;;2.70;96.80;;;;;;5073529;28;20249;-70
2021/03/24 23:11:07;;;;;;;1.63;1.48;;;2.80;96.60;;;;;;5073490;28;20183;-71
2021/03/24 23:13:44;;;;;;;3.70;1.65;;;2.80;96.60;;;;;;5073320;28;20261;-71
2021/03/24 23:16:19;;;;;;;2.78;1.15;;;2.80;96.90;;;;;;5073339;28;20179;-71
2021/03/24 23:18:56;;;;;;;2.00;1.30;;;2.80;96.30;;;;;;5073243;28;20652;-71
2021/03/24 23:21:22;;;;;;;2.58;1.13;;;2.80;96.20;;;;;;5071917;28;20242;-70
2021/03/24 23:23:50;;;;;;;2.50;1.40;;;2.80;96.30;;;;;;5072049;28;20168;-70
2021/03/24 23:26:17;;;;;;;1.05;1.00;;;2.60;96.80;;;;;;5073641;28;20244;-71
2021/03/24 23:28:45;;;;;;;1.67;1.58;;;2.50;96.60;;;;;;5073063;28;20195;-71
2021/03/24 23:31:12;;;;;;;3.03;1.92;;;2.50;96.70;;;;;;5073225;28;20170;-71
2021/03/24 23:33:42;;;;;;;1.60;0.82;;;2.50;96.70;;;;;;5073178;28;20252;-71
2021/03/24 23:36:10;;;;;;;1.30;1.25;;;2.60;96.80;;;;;;5073320;28;20172;-71
2021/03/24 23:38:36;;;;;;;1.98;1.27;;;2.50;96.40;;;;;;5073327;28;20171;-71
2021/03/24 23:41:02;;;;;;;1.43;1.10;;;2.50;96.30;;;;;;5072840;28;20180;-70
2021/03/24 23:43:27;;;;;;;1.83;1.70;;;2.60;96.20;;;;;;5073795;28;20210;-71
2021/03/24 23:45:53;;;;;;;0.83;0.83;;;2.50;96.10;;;;;;5077175;28;20254;-71
2021/03/24 23:48:29;;;;;;;0.83;0.80;;;2.60;96.10;;;;;;5077084;28;20172;-71
2021/03/24 23:50:58;;;;;;;4.57;1.45;;;2.60;95.90;;;;;;5077057;28;20163;-71
2021/03/24 23:53:24;;;;;;;5.30;1.80;;;2.60;95.80;;;;;;5076971;28;20184;-71
2021/03/24 23:56:02;;;;;;;1.60;1.50;;;2.50;95.50;;;;;;5075702;28;20183;-71
2021/03/24 23:58:31;;;;;;;1.92;1.35;;;2.40;95.50;;;;;;5076963;28;20641;-71
